createdAt,value
2023-03-24T00:00:28.448Z,57.24
2023-03-24T00:02:56.808Z,57.36
2023-03-24T00:05:24.224Z,57.34
2023-03-24T00:10:23.053Z,57.41
2023-03-24T00:12:51.237Z,57.42
2023-03-24T00:15:21.284Z,57.55
2023-03-24T00:17:52.700Z,57.56
2023-03-24T00:20:22.528Z,57.68
2023-03-24T00:22:57.165Z,57.69
2023-03-24T00:25:34.126Z,57.54
2023-03-24T00:28:01.639Z,57.62
2023-03-24T00:30:29.573Z,57.80
2023-03-24T00:32:59.318Z,57.68
2023-03-24T00:35:26.570Z,57.84
2023-03-24T00:37:53.785Z,57.81
2023-03-24T00:40:22.349Z,57.94
2023-03-24T00:42:50.892Z,57.79
2023-03-24T00:45:23.545Z,57.66
2023-03-24T00:47:54.792Z,57.74
2023-03-24T00:50:33.872Z,57.88
2023-03-24T00:53:02.324Z,57.84
2023-03-24T00:55:29.283Z,57.93
2023-03-24T00:57:56.538Z,57.78
2023-03-24T01:00:26.416Z,57.85
2023-03-24T01:02:56.479Z,57.85
2023-03-24T01:05:28.325Z,57.79
2023-03-24T01:07:57.925Z,57.82
2023-03-24T01:10:27.375Z,57.81
2023-03-24T01:13:00.234Z,57.94
2023-03-24T01:15:33.684Z,57.90
2023-03-24T01:18:04.660Z,57.96
2023-03-24T01:20:35.858Z,58.11
2023-03-24T01:23:08.156Z,58.08
2023-03-24T01:25:37.534Z,58.16
2023-03-24T01:28:05.030Z,58.33
2023-03-24T01:30:32.344Z,58.31
2023-03-24T01:32:59.320Z,58.41
2023-03-24T01:35:29.280Z,58.28
2023-03-24T01:37:58.142Z,58.33
2023-03-24T01:40:29.408Z,58.53
2023-03-24T01:42:57.525Z,58.53
2023-03-24T01:46:09.327Z,58.61
2023-03-24T01:48:39.228Z,58.70
2023-03-24T01:51:15.075Z,58.68
2023-03-24T01:53:52.017Z,58.62
2023-03-24T01:56:19.713Z,58.59
2023-03-24T01:58:56.706Z,58.58
2023-03-24T02:01:39.690Z,58.65
2023-03-24T02:04:39.291Z,58.66
2023-03-24T02:07:15.877Z,58.70
2023-03-24T02:09:42.940Z,58.69
2023-03-24T02:12:09.771Z,58.74
2023-03-24T02:14:37.446Z,58.78
2023-03-24T02:17:19.633Z,58.76
2023-03-24T02:20:12.732Z,58.87
2023-03-24T02:22:42.644Z,58.70
2023-03-24T02:25:22.422Z,58.99
2023-03-24T02:28:04.850Z,59.02
2023-03-24T02:30:50.207Z,58.96
2023-03-24T02:33:39.208Z,58.93
2023-03-24T02:36:15.747Z,59.05
2023-03-24T02:39:02.195Z,59.04
2023-03-24T02:41:47.526Z,59.11
2023-03-24T02:44:53.456Z,59.17
2023-03-24T02:47:29.682Z,59.25
2023-03-24T02:50:29.373Z,59.33
2023-03-24T02:53:03.893Z,59.45
2023-03-24T02:55:43.540Z,59.46
2023-03-24T02:58:23.628Z,59.57
2023-03-24T03:01:03.153Z,59.72
2023-03-24T03:03:57.485Z,59.67
2023-03-24T03:06:31.424Z,59.75
2023-03-24T03:09:05.183Z,59.78
2023-03-24T03:11:32.615Z,59.92
2023-03-24T03:14:04.342Z,59.98
2023-03-24T03:16:43.512Z,60.02
2023-03-24T03:19:32.347Z,60.11
2023-03-24T03:22:00.878Z,60.19
2023-03-24T03:24:35.228Z,60.08
2023-03-24T03:27:08.478Z,60.07
2023-03-24T03:29:40.488Z,60.14
2023-03-24T03:32:13.008Z,60.25
2023-03-24T03:34:48.762Z,60.37
2023-03-24T03:37:39.827Z,60.51
2023-03-24T03:40:27.919Z,60.56
2023-03-24T03:42:58.861Z,60.56
2023-03-24T03:45:26.024Z,60.58
2023-03-24T03:47:53.760Z,60.74
2023-03-24T03:50:20.645Z,60.83
2023-03-24T03:52:48.133Z,60.97
2023-03-24T03:55:15.046Z,60.99
2023-03-24T03:57:43.173Z,61.03
2023-03-24T04:00:20.032Z,61.03
2023-03-24T04:03:14.521Z,61.15
2023-03-24T04:06:02.260Z,61.25
2023-03-24T04:08:51.107Z,61.14
2023-03-24T04:11:52.045Z,61.16
2023-03-24T04:15:11.291Z,61.35
2023-03-24T04:18:06.413Z,61.49
2023-03-24T04:21:13.907Z,61.53
2023-03-24T04:23:41.063Z,61.61
2023-03-24T04:26:46.256Z,61.68
2023-03-24T04:29:13.117Z,61.64
2023-03-24T04:32:07.694Z,61.66
2023-03-24T04:34:45.694Z,61.67
2023-03-24T04:37:32.839Z,61.57
2023-03-24T04:40:13.242Z,61.66
2023-03-24T04:42:53.607Z,61.66
2023-03-24T04:45:35.676Z,61.70
2023-03-24T04:48:20.482Z,61.84
2023-03-24T04:51:09.294Z,61.81
2023-03-24T04:54:02.090Z,61.80
2023-03-24T04:56:57.126Z,61.95
2023-03-24T04:59:34.823Z,62.05
2023-03-24T05:02:03.813Z,62.14
2023-03-24T05:04:37.800Z,62.20
2023-03-24T05:07:11.647Z,62.24
2023-03-24T05:09:38.909Z,62.22
2023-03-24T05:12:06.394Z,62.28
2023-03-24T05:14:43.417Z,62.37
2023-03-24T05:17:10.439Z,62.48
2023-03-24T05:19:38.088Z,62.48
2023-03-24T05:22:05.325Z,62.55
2023-03-24T05:24:32.224Z,62.59
2023-03-24T05:26:59.085Z,62.69
2023-03-24T05:29:27.257Z,62.72
2023-03-24T05:31:54.526Z,62.75
2023-03-24T05:34:22.882Z,62.70
2023-03-24T05:37:14.523Z,62.62
2023-03-24T05:39:42.020Z,62.52
2023-03-24T05:42:17.823Z,62.53
2023-03-24T05:44:45.857Z,62.49
2023-03-24T05:47:20.326Z,62.58
2023-03-24T05:49:47.304Z,62.71
2023-03-24T05:52:17.602Z,62.77
2023-03-24T05:54:46.188Z,62.92
2023-03-24T05:57:20.799Z,63.09
2023-03-24T06:00:15.395Z,63.05
2023-03-24T06:02:45.562Z,62.97
2023-03-24T06:05:32.832Z,63.02
2023-03-24T06:08:01.582Z,62.93
2023-03-24T06:10:30.492Z,62.84
2023-03-24T06:12:57.821Z,62.91
2023-03-24T06:15:28.104Z,62.95
2023-03-24T06:17:58.493Z,63.08
2023-03-24T06:20:34.563Z,63.03
2023-03-24T06:23:06.343Z,62.97
2023-03-24T06:25:44.789Z,63.03
2023-03-24T06:28:34.738Z,62.81
2023-03-24T06:31:06.758Z,62.97
2023-03-24T06:33:35.705Z,62.98
2023-03-24T06:36:04.470Z,62.93
2023-03-24T06:38:32.264Z,63.15
2023-03-24T06:41:03.786Z,63.18
2023-03-24T06:43:31.718Z,62.99
2023-03-24T06:45:59.209Z,62.96
2023-03-24T06:48:27.990Z,62.83
2023-03-24T06:51:00.646Z,62.91
2023-03-24T06:53:27.709Z,62.93
2023-03-24T06:55:54.778Z,62.83
2023-03-24T06:58:23.858Z,62.97
2023-03-24T07:01:01.953Z,62.89
2023-03-24T07:03:33.469Z,63.04
2023-03-24T07:06:20.408Z,63.00
2023-03-24T07:08:53.611Z,62.85
2023-03-24T07:11:21.970Z,63.00
2023-03-24T07:13:52.196Z,62.85
2023-03-24T07:16:19.336Z,62.86
2023-03-24T07:18:48.556Z,62.84
2023-03-24T07:21:15.799Z,62.97
2023-03-24T07:23:42.971Z,62.79
2023-03-24T07:26:12.766Z,62.76
2023-03-24T07:28:49.390Z,62.90
2023-03-24T07:31:42.327Z,62.81
2023-03-24T07:34:11.536Z,63.02
2023-03-24T07:36:39.627Z,62.90
2023-03-24T07:39:09.718Z,62.90
2023-03-24T07:41:37.182Z,62.82
2023-03-24T07:44:09.412Z,62.77
2023-03-24T07:47:05.667Z,62.76
2023-03-24T07:49:32.925Z,62.75
2023-03-24T07:52:06.841Z,62.69
2023-03-24T07:54:45.392Z,62.72
2023-03-24T07:57:23.479Z,62.53
2023-03-24T07:59:50.757Z,62.36
2023-03-24T08:02:36.273Z,62.36
2023-03-24T08:05:23.909Z,62.13
2023-03-24T08:08:02.739Z,62.25
2023-03-24T08:10:31.216Z,62.32
2023-03-24T08:12:58.929Z,62.04
2023-03-24T08:15:27.384Z,62.09
2023-03-24T08:17:56.933Z,62.30
2023-03-24T08:20:28.656Z,62.41
2023-03-24T08:22:56.034Z,62.44
2023-03-24T08:25:26.159Z,62.64
2023-03-24T08:27:53.391Z,62.69
2023-03-24T08:30:23.225Z,62.81
2023-03-24T08:32:55.763Z,62.85
2023-03-24T08:35:34.362Z,63.17
2023-03-24T08:38:06.169Z,63.28
2023-03-24T08:40:35.063Z,63.46
2023-03-24T08:43:04.863Z,63.37
2023-03-24T08:45:33.185Z,63.64
2023-03-24T08:48:04.296Z,63.74
2023-03-24T08:50:35.456Z,63.75
2023-03-24T08:53:03.740Z,63.96
2023-03-24T08:55:32.485Z,63.98
2023-03-24T08:58:00.200Z,64.08
2023-03-24T09:00:29.087Z,64.25
2023-03-24T09:02:56.742Z,64.24
2023-03-24T09:05:40.955Z,64.40
2023-03-24T09:08:12.958Z,64.57
2023-03-24T09:10:41.305Z,64.34
2023-03-24T09:13:08.468Z,64.34
2023-03-24T09:15:38.269Z,64.33
2023-03-24T09:18:05.511Z,64.72
2023-03-24T09:20:32.451Z,64.59
2023-03-24T09:22:59.420Z,64.51
2023-03-24T09:25:26.516Z,64.63
2023-03-24T09:27:53.477Z,64.70
2023-03-24T09:30:25.249Z,64.80
2023-03-24T09:32:52.155Z,64.97
2023-03-24T09:35:19.430Z,65.17
2023-03-24T09:37:46.901Z,65.24
2023-03-24T09:40:25.800Z,65.42
2023-03-24T09:43:17.711Z,65.56
2023-03-24T09:45:51.630Z,66.06
2023-03-24T09:48:29.456Z,66.70
2023-03-24T09:51:06.802Z,66.63
2023-03-24T09:53:49.935Z,65.71
2023-03-24T09:56:21.056Z,65.18
2023-03-24T09:59:15.728Z,64.92
2023-03-24T10:01:42.698Z,63.82
2023-03-24T10:04:21.509Z,63.21
2023-03-24T10:06:53.570Z,62.32
2023-03-24T10:09:29.024Z,62.09
2023-03-24T10:11:56.132Z,62.07
2023-03-24T10:18:12.561Z,62.62
2023-03-24T10:20:55.505Z,62.66
2023-03-24T10:23:46.997Z,62.67
2023-03-24T10:26:26.704Z,62.78
2023-03-24T10:29:05.020Z,62.90
2023-03-24T10:31:35.059Z,62.62
2023-03-24T10:34:01.937Z,62.85
2023-03-24T10:36:29.425Z,62.73
2023-03-24T10:38:58.650Z,63.17
2023-03-24T10:41:29.648Z,63.08
2023-03-24T10:43:59.386Z,63.16
2023-03-24T10:46:30.093Z,63.16
2023-03-24T10:49:12.481Z,62.96
2023-03-24T10:51:41.486Z,63.06
2023-03-24T10:54:11.546Z,62.96
2023-03-24T10:56:45.339Z,62.50
2023-03-24T10:59:27.705Z,62.26
2023-03-24T11:02:10.005Z,62.09
2023-03-24T11:04:39.536Z,62.44
2023-03-24T11:07:23.019Z,62.92
2023-03-24T11:10:02.514Z,63.18
2023-03-24T11:12:31.954Z,63.29
2023-03-24T11:15:21.015Z,63.40
2023-03-24T11:17:57.759Z,63.33
2023-03-24T11:20:35.797Z,63.38
2023-03-24T11:23:20.925Z,63.35
2023-03-24T11:26:11.338Z,63.63
2023-03-24T11:28:43.294Z,63.52
2023-03-24T11:31:19.325Z,63.75
2023-03-24T11:34:09.116Z,63.81
2023-03-24T11:36:58.497Z,63.94
2023-03-24T11:39:27.761Z,63.96
2023-03-24T11:42:18.571Z,64.06
2023-03-24T11:44:49.941Z,64.23
2023-03-24T11:47:31.224Z,64.17
2023-03-24T11:50:10.417Z,64.30
2023-03-24T11:52:55.701Z,64.37
2023-03-24T11:56:06.397Z,64.50
2023-03-24T11:59:31.704Z,64.73
2023-03-24T12:02:21.183Z,64.84
2023-03-24T12:05:36.202Z,64.96
2023-03-24T12:08:27.387Z,64.98
2023-03-24T12:11:07.411Z,64.84
2023-03-24T12:13:51.773Z,65.02
2023-03-24T12:16:54.597Z,65.18
2023-03-24T12:19:27.926Z,65.20
2023-03-24T12:22:24.967Z,65.08
2023-03-24T12:25:38.323Z,65.14
2023-03-24T12:28:11.843Z,65.21
2023-03-24T12:31:06.900Z,65.00
2023-03-24T12:33:45.119Z,64.87
2023-03-24T12:36:17.887Z,64.76
2023-03-24T12:38:57.370Z,64.88
2023-03-24T12:41:30.075Z,64.72
2023-03-24T12:44:18.917Z,64.72
2023-03-24T12:47:18.698Z,64.62
2023-03-24T12:50:23.936Z,64.64
2023-03-24T12:53:16.444Z,64.86
2023-03-24T12:55:45.074Z,64.91
2023-03-24T12:58:21.209Z,64.90
2023-03-24T13:00:57.176Z,64.75
2023-03-24T13:03:35.517Z,64.75
2023-03-24T13:06:17.464Z,64.68
2023-03-24T13:08:52.928Z,64.51
2023-03-24T13:11:33.003Z,64.27
2023-03-24T13:14:05.041Z,63.79
2023-03-24T13:16:36.974Z,63.63
2023-03-24T13:19:09.568Z,63.20
2023-03-24T13:21:37.999Z,63.08
2023-03-24T13:24:11.048Z,62.91
2023-03-24T13:26:54.286Z,62.35
2023-03-24T13:29:49.132Z,62.35
2023-03-24T13:32:23.950Z,62.38
2023-03-24T13:35:35.268Z,62.14
2023-03-24T13:38:37.912Z,62.06
2023-03-24T13:41:08.823Z,61.81
2023-03-24T13:43:35.790Z,61.50
2023-03-24T13:46:10.848Z,61.38
2023-03-24T13:48:38.152Z,61.31
2023-03-24T13:51:17.205Z,61.09
2023-03-24T13:54:11.951Z,61.09
2023-03-24T13:56:42.802Z,61.18
2023-03-24T13:59:24.591Z,61.19
2023-03-24T14:02:20.867Z,60.96
2023-03-24T14:05:07.338Z,60.82
2023-03-24T14:07:40.136Z,60.84
2023-03-24T14:10:21.032Z,60.81
2023-03-24T14:13:02.299Z,60.80
2023-03-24T14:15:44.883Z,60.80
2023-03-24T14:18:24.026Z,60.76
2023-03-24T14:20:56.995Z,60.70
2023-03-24T14:23:29.911Z,60.52
2023-03-24T14:25:57.058Z,60.57
2023-03-24T14:28:46.867Z,60.32
2023-03-24T14:31:15.924Z,60.36
2023-03-24T14:33:52.824Z,60.16
2023-03-24T14:36:30.708Z,60.16
2023-03-24T14:39:14.084Z,60.05
2023-03-24T14:41:44.421Z,60.09
2023-03-24T14:44:11.824Z,60.08
2023-03-24T14:46:44.888Z,59.80
2023-03-24T14:49:26.085Z,59.75
2023-03-24T14:52:12.957Z,59.73
2023-03-24T14:54:53.768Z,59.75
2023-03-24T14:57:34.734Z,59.69
2023-03-24T15:00:09.255Z,59.79
2023-03-24T15:02:41.562Z,59.72
2023-03-24T15:05:17.520Z,59.67
2023-03-24T15:07:46.762Z,59.61
2023-03-24T15:10:18.508Z,59.51
2023-03-24T15:12:47.544Z,59.55
2023-03-24T15:15:17.459Z,59.51
2023-03-24T15:17:44.816Z,59.35
2023-03-24T15:20:28.349Z,59.54
2023-03-24T15:22:56.198Z,59.27
2023-03-24T15:25:31.169Z,59.26
2023-03-24T15:27:58.558Z,59.17
2023-03-24T15:30:29.041Z,59.12
2023-03-24T15:32:56.179Z,59.20
2023-03-24T15:35:24.524Z,59.21
2023-03-24T15:37:57.160Z,58.92
2023-03-24T15:40:27.166Z,58.95
2023-03-24T15:42:59.333Z,59.00
2023-03-24T15:45:35.994Z,58.95
2023-03-24T15:48:11.539Z,58.86
2023-03-24T15:50:41.382Z,58.80
2023-03-24T15:53:14.263Z,58.93
2023-03-24T15:55:43.419Z,58.78
2023-03-24T15:58:23.075Z,58.67
2023-03-24T16:00:53.615Z,58.71
2023-03-24T16:03:26.921Z,58.70
2023-03-24T16:05:56.801Z,58.72
2023-03-24T16:08:27.717Z,58.81
2023-03-24T16:11:05.396Z,58.86
2023-03-24T16:13:32.356Z,58.73
2023-03-24T16:16:37.941Z,58.73
2023-03-24T16:19:05.006Z,58.60
2023-03-24T16:21:32.802Z,58.65
2023-03-24T16:24:00.884Z,58.51
2023-03-24T16:26:33.043Z,58.51
2023-03-24T16:29:17.126Z,58.60
2023-03-24T16:31:49.262Z,58.66
2023-03-24T16:34:18.909Z,58.52
2023-03-24T16:36:47.515Z,58.69
2023-03-24T16:39:18.234Z,58.65
2023-03-24T16:41:46.004Z,58.49
2023-03-24T16:44:13.630Z,58.70
2023-03-24T16:46:41.661Z,58.69
2023-03-24T16:49:13.168Z,58.49
2023-03-24T16:51:40.742Z,58.57
2023-03-24T16:54:09.260Z,58.73
2023-03-24T16:56:37.630Z,58.71
2023-03-24T16:59:05.652Z,58.69
2023-03-24T17:01:45.503Z,58.66
2023-03-24T17:04:19.470Z,58.82
2023-03-24T17:06:54.691Z,58.74
2023-03-24T17:09:22.304Z,58.73
2023-03-24T17:11:55.798Z,58.63
2023-03-24T17:14:23.562Z,58.73
2023-03-24T17:16:53.043Z,58.93
2023-03-24T17:19:22.602Z,59.04
2023-03-24T17:22:07.233Z,59.12
2023-03-24T17:24:41.869Z,59.18
2023-03-24T17:27:18.987Z,58.97
2023-03-24T17:29:46.668Z,59.32
2023-03-24T17:32:13.531Z,59.26
2023-03-24T17:34:45.785Z,59.28
2023-03-24T17:37:12.740Z,59.12
2023-03-24T17:39:40.830Z,58.95
2023-03-24T17:42:08.098Z,59.13
2023-03-24T17:44:35.448Z,59.23
2023-03-24T17:47:02.523Z,59.42
2023-03-24T17:49:29.629Z,59.36
2023-03-24T17:51:56.592Z,59.54
2023-03-24T17:54:25.523Z,59.62
2023-03-24T17:56:52.548Z,60.03
2023-03-24T17:59:19.745Z,60.05
2023-03-24T18:01:47.714Z,60.41
2023-03-24T18:04:14.755Z,60.41
2023-03-24T18:06:42.597Z,60.41
2023-03-24T18:09:09.939Z,60.52
2023-03-24T18:11:36.871Z,60.62
2023-03-24T18:14:03.859Z,61.02
2023-03-24T18:16:31.140Z,61.13
2023-03-24T18:18:58.741Z,61.21
2023-03-24T18:21:25.928Z,61.30
2023-03-24T18:23:52.860Z,61.56
2023-03-24T18:26:19.906Z,61.62
2023-03-24T18:28:46.999Z,61.86
2023-03-24T18:31:21.766Z,61.81
2023-03-24T18:33:50.482Z,62.04
2023-03-24T18:36:26.769Z,62.09
2023-03-24T18:39:02.512Z,62.17
2023-03-24T18:41:30.618Z,62.24
2023-03-24T18:43:59.549Z,62.32
2023-03-24T18:46:27.574Z,62.63
2023-03-24T18:48:54.856Z,62.60
2023-03-24T18:51:23.347Z,62.78
2023-03-24T18:53:50.641Z,63.06
2023-03-24T18:56:18.914Z,62.92
2023-03-24T18:58:51.191Z,63.03
2023-03-24T19:01:23.187Z,63.23
2023-03-24T19:03:52.203Z,63.44
2023-03-24T19:06:20.110Z,63.46
2023-03-24T19:08:51.753Z,63.43
2023-03-24T19:11:19.301Z,63.64
2023-03-24T19:13:49.886Z,64.04
2023-03-24T19:16:19.058Z,64.16
2023-03-24T19:18:48.697Z,64.31
2023-03-24T19:21:17.086Z,64.49
2023-03-24T19:23:45.237Z,64.50
2023-03-24T19:26:13.511Z,64.64
2023-03-24T19:28:41.442Z,64.64
2023-03-24T19:31:11.222Z,64.70
2023-03-24T19:33:38.725Z,64.65
2023-03-24T19:36:07.633Z,64.64
2023-03-24T19:38:36.130Z,64.75
2023-03-24T19:41:09.427Z,65.18
2023-03-24T19:43:36.969Z,65.24
2023-03-24T19:46:05.833Z,65.32
2023-03-24T19:48:33.778Z,65.47
2023-03-24T19:51:00.686Z,65.61
2023-03-24T19:53:27.752Z,65.57
2023-03-24T19:55:58.857Z,65.53
2023-03-24T19:58:26.179Z,65.73
2023-03-24T20:00:54.824Z,66.08
2023-03-24T20:03:22.056Z,66.05
2023-03-24T20:05:49.634Z,66.28
2023-03-24T20:08:19.328Z,66.11
2023-03-24T20:10:46.653Z,66.03
2023-03-24T20:13:14.294Z,66.12
2023-03-24T20:15:41.329Z,66.13
2023-03-24T20:18:10.401Z,66.32
2023-03-24T20:20:39.598Z,66.31
2023-03-24T20:23:06.791Z,66.27
2023-03-24T20:25:33.702Z,66.42
2023-03-24T20:28:01.495Z,66.48
2023-03-24T20:30:30.437Z,66.52
2023-03-24T20:32:57.543Z,66.90
2023-03-24T20:35:25.968Z,66.91
2023-03-24T20:37:53.001Z,66.97
2023-03-24T20:40:20.986Z,67.11
2023-03-24T20:42:49.660Z,67.08
2023-03-24T20:45:16.922Z,67.08
2023-03-24T20:47:43.814Z,67.07
2023-03-24T20:50:11.127Z,67.08
2023-03-24T20:52:38.150Z,67.22
2023-03-24T20:55:06.561Z,66.99
2023-03-24T20:57:34.552Z,66.97
2023-03-24T21:00:02.388Z,67.04
2023-03-24T21:02:31.904Z,67.06
2023-03-24T21:04:58.924Z,67.20
2023-03-24T21:07:27.027Z,67.27
2023-03-24T21:09:53.937Z,67.30
2023-03-24T21:12:22.004Z,67.36
2023-03-24T21:14:49.486Z,67.57
2023-03-24T21:17:20.780Z,67.52
2023-03-24T21:19:47.620Z,67.64
2023-03-24T21:22:15.645Z,67.50
2023-03-24T21:24:42.918Z,67.62
2023-03-24T21:27:09.929Z,67.52
2023-03-24T21:29:36.886Z,67.67
2023-03-24T21:32:03.947Z,67.87
2023-03-24T21:34:31.701Z,67.97
2023-03-24T21:37:01.639Z,67.69
2023-03-24T21:39:29.272Z,67.61
2023-03-24T21:41:56.276Z,68.10
2023-03-24T21:44:23.535Z,67.97
2023-03-24T21:46:50.500Z,67.94
2023-03-24T21:49:19.176Z,68.00
2023-03-24T21:51:46.918Z,67.88
2023-03-24T21:54:16.206Z,68.05
2023-03-24T21:56:43.140Z,67.84
2023-03-24T21:59:11.470Z,68.07
2023-03-24T22:01:38.439Z,68.13
2023-03-24T22:04:09.172Z,67.92
2023-03-24T22:06:38.166Z,68.14
2023-03-24T22:09:07.092Z,68.16
2023-03-24T22:11:35.348Z,68.06
2023-03-24T22:14:02.566Z,68.22
2023-03-24T22:16:29.956Z,68.16
2023-03-24T22:18:57.390Z,68.21
2023-03-24T22:21:24.387Z,68.24
2023-03-24T22:23:51.667Z,68.10
2023-03-24T22:26:18.755Z,68.21
2023-03-24T22:28:45.913Z,68.36
2023-03-24T22:31:16.438Z,68.20
2023-03-24T22:33:44.414Z,68.26
2023-03-24T22:36:12.112Z,67.97
2023-03-24T22:38:39.370Z,67.95
2023-03-24T22:41:08.433Z,68.12
2023-03-24T22:43:36.042Z,68.10
2023-03-24T22:46:03.776Z,68.02
2023-03-24T22:48:31.594Z,67.95
2023-03-24T22:50:58.989Z,68.02
2023-03-24T22:53:26.099Z,67.96
2023-03-24T22:55:53.720Z,67.93
2023-03-24T22:58:23.446Z,68.00
2023-03-24T23:00:55.998Z,68.01
2023-03-24T23:03:23.095Z,68.07
2023-03-24T23:05:50.397Z,67.96
2023-03-24T23:08:17.436Z,68.10
2023-03-24T23:10:45.691Z,68.04
2023-03-24T23:13:13.713Z,68.06
2023-03-24T23:15:49.426Z,68.10
2023-03-24T23:18:17.051Z,68.06
2023-03-24T23:20:44.651Z,68.07
2023-03-24T23:23:12.271Z,68.18
2023-03-24T23:25:45.528Z,68.32
2023-03-24T23:28:13.244Z,68.26
2023-03-24T23:30:41.516Z,68.19
2023-03-24T23:33:09.161Z,68.14
2023-03-24T23:35:37.790Z,68.34
2023-03-24T23:38:06.878Z,68.30
2023-03-24T23:40:33.787Z,68.25
2023-03-24T23:43:02.039Z,68.19
2023-03-24T23:45:28.983Z,68.34
2023-03-24T23:47:56.398Z,68.51
2023-03-24T23:50:23.920Z,68.55
2023-03-24T23:52:50.858Z,68.57
2023-03-24T23:55:18.347Z,68.35
2023-03-24T23:57:46.758Z,68.46
